sensor_id;sensor_type;location;lat;lon;timestamp;temperature;humidity
19930;DHT22;10127;47.780;9.606;2023-04-03T00:01:03;6.20;99.90
19930;DHT22;10127;47.780;9.606;2023-04-03T00:03:28;6.30;99.90
19930;DHT22;10127;47.780;9.606;2023-04-03T00:05:54;6.30;99.90
19930;DHT22;10127;47.780;9.606;2023-04-03T00:08:20;6.40;99.90
19930;DHT22;10127;47.780;9.606;2023-04-03T00:10:46;6.20;99.90
19930;DHT22;10127;47.780;9.606;2023-04-03T00:13:12;6.10;99.90
19930;DHT22;10127;47.780;9.606;2023-04-03T00:15:38;6.00;99.90
19930;DHT22;10127;47.780;9.606;2023-04-03T00:18:04;6.10;99.90
19930;DHT22;10127;47.780;9.606;2023-04-03T00:20:30;6.10;99.90
19930;DHT22;10127;47.780;9.606;2023-04-03T00:22:56;6.10;99.90
19930;DHT22;10127;47.780;9.606;2023-04-03T00:25:21;5.90;99.90
19930;DHT22;10127;47.780;9.606;2023-04-03T00:27:47;5.80;99.90
19930;DHT22;10127;47.780;9.606;2023-04-03T00:30:15;5.80;99.90
19930;DHT22;10127;47.780;9.606;2023-04-03T00:32:41;5.70;99.90
19930;DHT22;10127;47.780;9.606;2023-04-03T00:35:07;5.70;99.90
19930;DHT22;10127;47.780;9.606;2023-04-03T00:37:33;5.70;99.90
19930;DHT22;10127;47.780;9.606;2023-04-03T00:39:58;5.60;99.90
19930;DHT22;10127;47.780;9.606;2023-04-03T00:42:25;5.60;99.90
19930;DHT22;10127;47.780;9.606;2023-04-03T00:47:23;5.50;99.90
19930;DHT22;10127;47.780;9.606;2023-04-03T00:49:49;5.70;99.90
19930;DHT22;10127;47.780;9.606;2023-04-03T00:52:17;5.60;99.90
19930;DHT22;10127;47.780;9.606;2023-04-03T00:54:45;5.50;99.90
19930;DHT22;10127;47.780;9.606;2023-04-03T00:57:12;5.50;99.90
19930;DHT22;10127;47.780;9.606;2023-04-03T00:59:46;5.50;99.90
19930;DHT22;10127;47.780;9.606;2023-04-03T01:02:13;5.30;99.90
19930;DHT22;10127;47.780;9.606;2023-04-03T01:04:41;5.40;99.90
19930;DHT22;10127;47.780;9.606;2023-04-03T01:07:12;5.30;99.90
19930;DHT22;10127;47.780;9.606;2023-04-03T01:09:40;5.30;99.90
19930;DHT22;10127;47.780;9.606;2023-04-03T01:12:31;5.20;99.90
19930;DHT22;10127;47.780;9.606;2023-04-03T01:17:38;5.30;99.90
19930;DHT22;10127;47.780;9.606;2023-04-03T01:25:06;5.00;99.90
19930;DHT22;10127;47.780;9.606;2023-04-03T01:27:32;5.10;99.90
19930;DHT22;10127;47.780;9.606;2023-04-03T01:29:58;5.20;99.90
19930;DHT22;10127;47.780;9.606;2023-04-03T01:32:23;5.00;99.90
19930;DHT22;10127;47.780;9.606;2023-04-03T01:34:49;5.20;99.90
19930;DHT22;10127;47.780;9.606;2023-04-03T01:37:14;5.30;99.90
19930;DHT22;10127;47.780;9.606;2023-04-03T01:39:40;5.30;99.90
19930;DHT22;10127;47.780;9.606;2023-04-03T01:42:06;5.20;99.90
19930;DHT22;10127;47.780;9.606;2023-04-03T01:44:31;5.10;99.90
19930;DHT22;10127;47.780;9.606;2023-04-03T01:46:57;5.00;99.90
19930;DHT22;10127;47.780;9.606;2023-04-03T01:49:22;5.00;99.90
19930;DHT22;10127;47.780;9.606;2023-04-03T01:51:48;4.90;99.90
19930;DHT22;10127;47.780;9.606;2023-04-03T01:54:13;4.90;99.90
19930;DHT22;10127;47.780;9.606;2023-04-03T01:56:39;4.70;99.90
19930;DHT22;10127;47.780;9.606;2023-04-03T01:59:05;4.60;99.90
19930;DHT22;10127;47.780;9.606;2023-04-03T02:01:30;4.60;99.90
19930;DHT22;10127;47.780;9.606;2023-04-03T02:03:56;4.60;99.90
19930;DHT22;10127;47.780;9.606;2023-04-03T02:06:22;4.50;99.90
19930;DHT22;10127;47.780;9.606;2023-04-03T02:08:47;4.50;99.90
19930;DHT22;10127;47.780;9.606;2023-04-03T02:11:13;4.60;99.90
19930;DHT22;10127;47.780;9.606;2023-04-03T02:13:38;4.50;99.90
19930;DHT22;10127;47.780;9.606;2023-04-03T02:16:10;4.60;99.90
19930;DHT22;10127;47.780;9.606;2023-04-03T02:18:37;4.70;99.90
19930;DHT22;10127;47.780;9.606;2023-04-03T02:21:02;4.70;99.90
19930;DHT22;10127;47.780;9.606;2023-04-03T02:23:28;4.80;99.90
19930;DHT22;10127;47.780;9.606;2023-04-03T02:26:03;4.70;99.90
19930;DHT22;10127;47.780;9.606;2023-04-03T02:28:28;4.80;99.90
19930;DHT22;10127;47.780;9.606;2023-04-03T02:30:54;4.80;99.90
19930;DHT22;10127;47.780;9.606;2023-04-03T02:33:19;4.90;99.90
19930;DHT22;10127;47.780;9.606;2023-04-03T02:35:45;4.80;99.90
19930;DHT22;10127;47.780;9.606;2023-04-03T02:38:18;4.80;99.90
19930;DHT22;10127;47.780;9.606;2023-04-03T02:40:43;4.80;99.90
19930;DHT22;10127;47.780;9.606;2023-04-03T02:43:09;4.90;99.90
19930;DHT22;10127;47.780;9.606;2023-04-03T02:45:35;4.80;99.90
19930;DHT22;10127;47.780;9.606;2023-04-03T02:48:01;4.90;99.90
19930;DHT22;10127;47.780;9.606;2023-04-03T03:11:00;4.70;99.90
19930;DHT22;10127;47.780;9.606;2023-04-03T03:13:25;4.80;99.90
19930;DHT22;10127;47.780;9.606;2023-04-03T03:15:51;4.90;99.90
19930;DHT22;10127;47.780;9.606;2023-04-03T03:18:17;5.00;99.90
19930;DHT22;10127;47.780;9.606;2023-04-03T03:20:43;4.90;99.90
19930;DHT22;10127;47.780;9.606;2023-04-03T03:23:09;4.80;99.90
19930;DHT22;10127;47.780;9.606;2023-04-03T03:25:38;4.80;99.90
19930;DHT22;10127;47.780;9.606;2023-04-03T03:28:04;4.90;99.90
19930;DHT22;10127;47.780;9.606;2023-04-03T03:30:30;4.90;99.90
19930;DHT22;10127;47.780;9.606;2023-04-03T03:32:55;5.00;99.90
19930;DHT22;10127;47.780;9.606;2023-04-03T03:35:21;4.80;99.90
19930;DHT22;10127;47.780;9.606;2023-04-03T03:37:46;4.70;99.90
19930;DHT22;10127;47.780;9.606;2023-04-03T03:40:13;4.70;99.90
19930;DHT22;10127;47.780;9.606;2023-04-03T03:42:39;4.70;99.90
19930;DHT22;10127;47.780;9.606;2023-04-03T03:45:05;4.70;99.90
19930;DHT22;10127;47.780;9.606;2023-04-03T03:47:31;4.70;99.90
19930;DHT22;10127;47.780;9.606;2023-04-03T03:49:56;4.80;99.90
19930;DHT22;10127;47.780;9.606;2023-04-03T03:52:22;4.80;99.90
19930;DHT22;10127;47.780;9.606;2023-04-03T03:54:47;4.80;99.90
19930;DHT22;10127;47.780;9.606;2023-04-03T03:57:13;4.90;99.90
19930;DHT22;10127;47.780;9.606;2023-04-03T03:59:38;4.90;99.90
19930;DHT22;10127;47.780;9.606;2023-04-03T04:02:07;4.70;99.90
19930;DHT22;10127;47.780;9.606;2023-04-03T04:04:33;4.70;99.90
19930;DHT22;10127;47.780;9.606;2023-04-03T04:06:58;4.60;99.90
19930;DHT22;10127;47.780;9.606;2023-04-03T04:09:26;4.70;99.90
19930;DHT22;10127;47.780;9.606;2023-04-03T04:11:51;4.70;99.90
19930;DHT22;10127;47.780;9.606;2023-04-03T04:14:17;4.70;99.90
19930;DHT22;10127;47.780;9.606;2023-04-03T04:16:43;4.70;99.90
19930;DHT22;10127;47.780;9.606;2023-04-03T04:19:08;4.60;99.90
19930;DHT22;10127;47.780;9.606;2023-04-03T04:21:34;4.70;99.90
19930;DHT22;10127;47.780;9.606;2023-04-03T04:24:00;4.70;99.90
19930;DHT22;10127;47.780;9.606;2023-04-03T04:26:32;4.80;99.90
19930;DHT22;10127;47.780;9.606;2023-04-03T04:28:58;5.10;99.90
19930;DHT22;10127;47.780;9.606;2023-04-03T04:31:23;5.00;99.90
19930;DHT22;10127;47.780;9.606;2023-04-03T04:33:49;4.90;99.90
19930;DHT22;10127;47.780;9.606;2023-04-03T04:36:14;4.80;99.90
19930;DHT22;10127;47.780;9.606;2023-04-03T04:38:40;4.70;99.90
19930;DHT22;10127;47.780;9.606;2023-04-03T04:41:07;4.70;99.90
19930;DHT22;10127;47.780;9.606;2023-04-03T04:43:33;4.80;99.90
19930;DHT22;10127;47.780;9.606;2023-04-03T04:48:28;4.50;99.90
19930;DHT22;10127;47.780;9.606;2023-04-03T04:50:53;4.60;99.90
19930;DHT22;10127;47.780;9.606;2023-04-03T04:53:19;4.80;99.90
19930;DHT22;10127;47.780;9.606;2023-04-03T04:55:45;4.70;99.90
19930;DHT22;10127;47.780;9.606;2023-04-03T04:58:10;4.70;99.90
19930;DHT22;10127;47.780;9.606;2023-04-03T05:00:36;4.70;99.90
19930;DHT22;10127;47.780;9.606;2023-04-03T05:03:01;4.60;99.90
19930;DHT22;10127;47.780;9.606;2023-04-03T05:05:27;4.70;99.90
19930;DHT22;10127;47.780;9.606;2023-04-03T05:07:53;4.80;99.90
19930;DHT22;10127;47.780;9.606;2023-04-03T05:10:18;4.90;99.90
19930;DHT22;10127;47.780;9.606;2023-04-03T05:12:44;4.90;99.90
19930;DHT22;10127;47.780;9.606;2023-04-03T05:15:10;4.80;99.90
19930;DHT22;10127;47.780;9.606;2023-04-03T05:17:35;5.00;99.90
19930;DHT22;10127;47.780;9.606;2023-04-03T05:20:02;4.80;99.90
19930;DHT22;10127;47.780;9.606;2023-04-03T05:22:28;4.80;99.90
19930;DHT22;10127;47.780;9.606;2023-04-03T05:24:53;4.90;99.90
19930;DHT22;10127;47.780;9.606;2023-04-03T05:27:19;4.90;99.90
19930;DHT22;10127;47.780;9.606;2023-04-03T05:29:44;4.80;99.90
19930;DHT22;10127;47.780;9.606;2023-04-03T05:32:11;4.90;99.90
19930;DHT22;10127;47.780;9.606;2023-04-03T05:34:36;4.90;99.90
19930;DHT22;10127;47.780;9.606;2023-04-03T05:37:02;5.00;99.90
19930;DHT22;10127;47.780;9.606;2023-04-03T05:39:34;5.10;99.90
19930;DHT22;10127;47.780;9.606;2023-04-03T05:42:00;5.00;99.90
19930;DHT22;10127;47.780;9.606;2023-04-03T05:44:26;5.00;99.90
19930;DHT22;10127;47.780;9.606;2023-04-03T05:46:51;5.10;99.90
19930;DHT22;10127;47.780;9.606;2023-04-03T05:49:17;5.20;99.90
19930;DHT22;10127;47.780;9.606;2023-04-03T05:51:43;5.20;99.90
19930;DHT22;10127;47.780;9.606;2023-04-03T05:54:16;5.30;99.90
19930;DHT22;10127;47.780;9.606;2023-04-03T05:56:43;5.30;99.90
19930;DHT22;10127;47.780;9.606;2023-04-03T05:59:09;5.20;99.90
19930;DHT22;10127;47.780;9.606;2023-04-03T06:01:34;5.30;99.90
19930;DHT22;10127;47.780;9.606;2023-04-03T06:04:00;5.40;99.90
19930;DHT22;10127;47.780;9.606;2023-04-03T06:06:26;5.60;99.90
19930;DHT22;10127;47.780;9.606;2023-04-03T06:08:51;5.30;99.90
19930;DHT22;10127;47.780;9.606;2023-04-03T06:11:17;5.30;99.90
19930;DHT22;10127;47.780;9.606;2023-04-03T06:13:43;5.20;99.90
19930;DHT22;10127;47.780;9.606;2023-04-03T06:16:12;5.40;99.90
19930;DHT22;10127;47.780;9.606;2023-04-03T06:18:40;5.50;99.90
19930;DHT22;10127;47.780;9.606;2023-04-03T06:21:06;5.10;99.90
19930;DHT22;10127;47.780;9.606;2023-04-03T06:23:33;5.20;99.90
19930;DHT22;10127;47.780;9.606;2023-04-03T06:25:58;5.30;99.90
19930;DHT22;10127;47.780;9.606;2023-04-03T06:28:25;5.10;99.90
19930;DHT22;10127;47.780;9.606;2023-04-03T06:30:50;5.40;99.90
19930;DHT22;10127;47.780;9.606;2023-04-03T06:33:16;5.50;99.90
19930;DHT22;10127;47.780;9.606;2023-04-03T06:35:41;5.60;99.90
19930;DHT22;10127;47.780;9.606;2023-04-03T06:38:07;5.60;99.90
19930;DHT22;10127;47.780;9.606;2023-04-03T06:40:35;5.60;99.90
19930;DHT22;10127;47.780;9.606;2023-04-03T06:43:01;5.70;99.90
19930;DHT22;10127;47.780;9.606;2023-04-03T06:45:27;5.60;99.90
19930;DHT22;10127;47.780;9.606;2023-04-03T06:47:53;5.50;99.90
19930;DHT22;10127;47.780;9.606;2023-04-03T06:50:19;5.80;99.90
19930;DHT22;10127;47.780;9.606;2023-04-03T06:52:45;6.00;99.90
19930;DHT22;10127;47.780;9.606;2023-04-03T06:55:11;6.10;99.90
19930;DHT22;10127;47.780;9.606;2023-04-03T06:57:37;6.20;99.90
19930;DHT22;10127;47.780;9.606;2023-04-03T07:00:05;6.00;99.90
19930;DHT22;10127;47.780;9.606;2023-04-03T07:02:31;5.90;99.90
19930;DHT22;10127;47.780;9.606;2023-04-03T07:04:57;6.10;99.90
19930;DHT22;10127;47.780;9.606;2023-04-03T07:07:22;6.20;99.90
19930;DHT22;10127;47.780;9.606;2023-04-03T07:09:48;6.30;99.90
19930;DHT22;10127;47.780;9.606;2023-04-03T07:12:14;6.00;99.90
19930;DHT22;10127;47.780;9.606;2023-04-03T07:14:41;6.20;99.90
19930;DHT22;10127;47.780;9.606;2023-04-03T07:17:06;6.50;99.90
19930;DHT22;10127;47.780;9.606;2023-04-03T07:19:32;6.40;99.90
19930;DHT22;10127;47.780;9.606;2023-04-03T07:21:58;6.30;99.90
19930;DHT22;10127;47.780;9.606;2023-04-03T07:24:23;6.40;99.90
19930;DHT22;10127;47.780;9.606;2023-04-03T07:26:50;6.50;99.90
19930;DHT22;10127;47.780;9.606;2023-04-03T07:29:16;6.60;99.90
19930;DHT22;10127;47.780;9.606;2023-04-03T07:31:42;6.70;99.90
19930;DHT22;10127;47.780;9.606;2023-04-03T07:34:08;6.60;99.90
19930;DHT22;10127;47.780;9.606;2023-04-03T07:36:34;6.60;99.90
19930;DHT22;10127;47.780;9.606;2023-04-03T07:38:59;6.60;99.90
19930;DHT22;10127;47.780;9.606;2023-04-03T07:41:25;6.50;99.90
19930;DHT22;10127;47.780;9.606;2023-04-03T07:43:50;6.50;99.90
19930;DHT22;10127;47.780;9.606;2023-04-03T07:46:17;6.70;99.90
19930;DHT22;10127;47.780;9.606;2023-04-03T07:48:43;6.70;99.90
19930;DHT22;10127;47.780;9.606;2023-04-03T07:51:09;6.70;99.90
19930;DHT22;10127;47.780;9.606;2023-04-03T07:53:35;6.70;99.90
19930;DHT22;10127;47.780;9.606;2023-04-03T07:56:01;6.60;99.90
19930;DHT22;10127;47.780;9.606;2023-04-03T07:58:28;6.70;99.90
19930;DHT22;10127;47.780;9.606;2023-04-03T08:00:54;6.80;99.90
19930;DHT22;10127;47.780;9.606;2023-04-03T08:03:20;7.10;99.90
19930;DHT22;10127;47.780;9.606;2023-04-03T08:05:47;7.20;99.90
19930;DHT22;10127;47.780;9.606;2023-04-03T08:08:16;7.20;99.90
19930;DHT22;10127;47.780;9.606;2023-04-03T08:10:42;7.40;99.90
19930;DHT22;10127;47.780;9.606;2023-04-03T08:13:08;7.20;99.90
19930;DHT22;10127;47.780;9.606;2023-04-03T08:15:35;7.30;99.90
19930;DHT22;10127;47.780;9.606;2023-04-03T08:18:01;7.30;99.90
19930;DHT22;10127;47.780;9.606;2023-04-03T08:20:27;7.50;99.90
19930;DHT22;10127;47.780;9.606;2023-04-03T08:23:00;7.60;99.90
19930;DHT22;10127;47.780;9.606;2023-04-03T08:25:34;7.40;99.90
19930;DHT22;10127;47.780;9.606;2023-04-03T08:28:00;7.80;99.90
19930;DHT22;10127;47.780;9.606;2023-04-03T08:30:26;7.60;99.90
19930;DHT22;10127;47.780;9.606;2023-04-03T08:32:51;7.60;99.90
19930;DHT22;10127;47.780;9.606;2023-04-03T08:35:17;7.60;99.90
19930;DHT22;10127;47.780;9.606;2023-04-03T08:37:42;7.70;99.90
19930;DHT22;10127;47.780;9.606;2023-04-03T08:40:14;7.80;99.90
19930;DHT22;10127;47.780;9.606;2023-04-03T08:45:59;7.80;99.90
19930;DHT22;10127;47.780;9.606;2023-04-03T08:48:38;7.80;99.90
19930;DHT22;10127;47.780;9.606;2023-04-03T08:51:13;8.00;99.90
19930;DHT22;10127;47.780;9.606;2023-04-03T08:53:44;7.80;99.90
19930;DHT22;10127;47.780;9.606;2023-04-03T08:56:12;7.60;99.90
19930;DHT22;10127;47.780;9.606;2023-04-03T08:58:51;7.80;99.90
19930;DHT22;10127;47.780;9.606;2023-04-03T09:01:35;7.90;99.90
19930;DHT22;10127;47.780;9.606;2023-04-03T09:04:05;8.00;99.90
19930;DHT22;10127;47.780;9.606;2023-04-03T09:06:36;8.00;99.90
19930;DHT22;10127;47.780;9.606;2023-04-03T09:09:33;7.90;99.90
19930;DHT22;10127;47.780;9.606;2023-04-03T09:12:15;8.10;99.90
19930;DHT22;10127;47.780;9.606;2023-04-03T09:17:21;8.30;99.90
19930;DHT22;10127;47.780;9.606;2023-04-03T09:19:58;8.30;99.90
19930;DHT22;10127;47.780;9.606;2023-04-03T09:22:32;8.30;99.90
19930;DHT22;10127;47.780;9.606;2023-04-03T09:25:13;8.30;99.90
19930;DHT22;10127;47.780;9.606;2023-04-03T09:27:45;7.80;99.90
19930;DHT22;10127;47.780;9.606;2023-04-03T09:30:21;7.90;99.90
19930;DHT22;10127;47.780;9.606;2023-04-03T09:32:50;8.40;99.90
19930;DHT22;10127;47.780;9.606;2023-04-03T09:35:18;8.10;99.90
19930;DHT22;10127;47.780;9.606;2023-04-03T09:37:50;8.10;99.90
19930;DHT22;10127;47.780;9.606;2023-04-03T09:42:56;8.50;99.90
19930;DHT22;10127;47.780;9.606;2023-04-03T09:45:28;8.60;99.90
19930;DHT22;10127;47.780;9.606;2023-04-03T09:48:20;8.50;99.90
19930;DHT22;10127;47.780;9.606;2023-04-03T09:51:01;8.40;99.90
19930;DHT22;10127;47.780;9.606;2023-04-03T09:53:48;8.40;99.90
19930;DHT22;10127;47.780;9.606;2023-04-03T09:58:51;8.80;99.90
19930;DHT22;10127;47.780;9.606;2023-04-03T10:01:35;8.70;99.90
19930;DHT22;10127;47.780;9.606;2023-04-03T10:04:13;8.60;99.90
19930;DHT22;10127;47.780;9.606;2023-04-03T10:06:46;8.70;99.90
19930;DHT22;10127;47.780;9.606;2023-04-03T10:12:12;8.80;99.90
19930;DHT22;10127;47.780;9.606;2023-04-03T10:20:27;8.40;99.90
19930;DHT22;10127;47.780;9.606;2023-04-03T10:23:15;8.30;99.90
19930;DHT22;10127;47.780;9.606;2023-04-03T10:28:53;8.10;99.90
19930;DHT22;10127;47.780;9.606;2023-04-03T10:34:06;8.80;99.90
19930;DHT22;10127;47.780;9.606;2023-04-03T10:36:37;9.00;99.90
19930;DHT22;10127;47.780;9.606;2023-04-03T10:44:52;9.20;99.90
19930;DHT22;10127;47.780;9.606;2023-04-03T10:53:00;9.00;99.90
19930;DHT22;10127;47.780;9.606;2023-04-03T11:00:55;9.00;99.90
19930;DHT22;10127;47.780;9.606;2023-04-03T11:03:45;8.90;99.90
19930;DHT22;10127;47.780;9.606;2023-04-03T11:06:14;9.20;99.90
19930;DHT22;10127;47.780;9.606;2023-04-03T11:09:00;8.90;99.90
19930;DHT22;10127;47.780;9.606;2023-04-03T11:11:37;9.20;99.90
19930;DHT22;10127;47.780;9.606;2023-04-03T11:20:10;9.20;99.90
19930;DHT22;10127;47.780;9.606;2023-04-03T11:22:47;9.30;99.90
19930;DHT22;10127;47.780;9.606;2023-04-03T11:25:19;9.50;99.90
19930;DHT22;10127;47.780;9.606;2023-04-03T11:27:59;9.40;99.90
19930;DHT22;10127;47.780;9.606;2023-04-03T11:30:55;9.10;99.90
19930;DHT22;10127;47.780;9.606;2023-04-03T11:33:44;9.00;99.90
19930;DHT22;10127;47.780;9.606;2023-04-03T11:36:26;9.20;99.90
19930;DHT22;10127;47.780;9.606;2023-04-03T11:39:07;9.30;99.90
19930;DHT22;10127;47.780;9.606;2023-04-03T11:41:35;9.00;99.90
19930;DHT22;10127;47.780;9.606;2023-04-03T11:46:55;8.80;99.90
19930;DHT22;10127;47.780;9.606;2023-04-03T12:11:25;8.60;99.90
19930;DHT22;10127;47.780;9.606;2023-04-03T12:24:23;9.10;99.90
19930;DHT22;10127;47.780;9.606;2023-04-03T12:47:00;9.30;99.90
19930;DHT22;10127;47.780;9.606;2023-04-03T12:51:54;8.50;99.90
19930;DHT22;10127;47.780;9.606;2023-04-03T12:54:35;8.80;99.90
19930;DHT22;10127;47.780;9.606;2023-04-03T12:57:11;8.80;99.90
19930;DHT22;10127;47.780;9.606;2023-04-03T12:59:38;9.00;99.90
19930;DHT22;10127;47.780;9.606;2023-04-03T13:02:23;9.20;99.90
19930;DHT22;10127;47.780;9.606;2023-04-03T13:04:51;9.40;99.90
19930;DHT22;10127;47.780;9.606;2023-04-03T13:09:59;9.60;99.90
19930;DHT22;10127;47.780;9.606;2023-04-03T13:12:25;9.70;99.90
19930;DHT22;10127;47.780;9.606;2023-04-03T13:14:56;9.20;99.90
19930;DHT22;10127;47.780;9.606;2023-04-03T13:17:24;8.90;99.90
19930;DHT22;10127;47.780;9.606;2023-04-03T13:19:50;8.70;99.90
19930;DHT22;10127;47.780;9.606;2023-04-03T13:24:50;8.80;99.90
19930;DHT22;10127;47.780;9.606;2023-04-03T13:27:16;8.80;99.90
19930;DHT22;10127;47.780;9.606;2023-04-03T13:29:42;8.80;99.90
19930;DHT22;10127;47.780;9.606;2023-04-03T13:32:18;8.70;99.90
19930;DHT22;10127;47.780;9.606;2023-04-03T13:34:44;8.80;99.90
19930;DHT22;10127;47.780;9.606;2023-04-03T13:37:31;8.90;99.90
19930;DHT22;10127;47.780;9.606;2023-04-03T13:42:26;9.00;99.90
19930;DHT22;10127;47.780;9.606;2023-04-03T13:47:40;9.10;99.90
19930;DHT22;10127;47.780;9.606;2023-04-03T13:50:14;9.00;99.90
19930;DHT22;10127;47.780;9.606;2023-04-03T13:52:43;9.10;99.90
19930;DHT22;10127;47.780;9.606;2023-04-03T13:57:57;9.30;99.90
19930;DHT22;10127;47.780;9.606;2023-04-03T14:00:37;9.30;99.90
19930;DHT22;10127;47.780;9.606;2023-04-03T14:03:13;9.00;99.90
19930;DHT22;10127;47.780;9.606;2023-04-03T14:05:39;8.80;99.90
19930;DHT22;10127;47.780;9.606;2023-04-03T14:08:05;9.00;99.90
19930;DHT22;10127;47.780;9.606;2023-04-03T14:10:32;9.00;99.90
19930;DHT22;10127;47.780;9.606;2023-04-03T14:12:58;8.80;99.90
19930;DHT22;10127;47.780;9.606;2023-04-03T14:15:27;8.70;99.90
19930;DHT22;10127;47.780;9.606;2023-04-03T14:17:54;8.70;99.90
19930;DHT22;10127;47.780;9.606;2023-04-03T14:20:23;8.70;99.90
19930;DHT22;10127;47.780;9.606;2023-04-03T14:22:49;8.70;99.90
19930;DHT22;10127;47.780;9.606;2023-04-03T14:25:17;8.60;99.90
19930;DHT22;10127;47.780;9.606;2023-04-03T14:27:45;8.70;99.90
19930;DHT22;10127;47.780;9.606;2023-04-03T14:30:24;8.70;99.90
19930;DHT22;10127;47.780;9.606;2023-04-03T14:32:51;9.00;99.90
19930;DHT22;10127;47.780;9.606;2023-04-03T14:35:17;9.00;99.90
19930;DHT22;10127;47.780;9.606;2023-04-03T14:37:44;9.10;99.90
19930;DHT22;10127;47.780;9.606;2023-04-03T14:40:14;9.00;99.90
19930;DHT22;10127;47.780;9.606;2023-04-03T14:42:40;8.60;99.90
19930;DHT22;10127;47.780;9.606;2023-04-03T14:45:10;8.70;99.90
19930;DHT22;10127;47.780;9.606;2023-04-03T14:47:49;8.50;99.90
19930;DHT22;10127;47.780;9.606;2023-04-03T14:50:21;8.60;99.90
19930;DHT22;10127;47.780;9.606;2023-04-03T14:52:48;8.80;99.90
19930;DHT22;10127;47.780;9.606;2023-04-03T14:55:17;9.10;99.90
19930;DHT22;10127;47.780;9.606;2023-04-03T14:57:43;9.40;99.90
19930;DHT22;10127;47.780;9.606;2023-04-03T15:00:17;9.60;99.90
19930;DHT22;10127;47.780;9.606;2023-04-03T15:02:44;9.70;99.90
19930;DHT22;10127;47.780;9.606;2023-04-03T15:05:11;9.50;99.90
19930;DHT22;10127;47.780;9.606;2023-04-03T15:07:48;9.70;99.90
19930;DHT22;10127;47.780;9.606;2023-04-03T15:12:46;9.50;99.90
19930;DHT22;10127;47.780;9.606;2023-04-03T15:15:12;9.50;99.90
19930;DHT22;10127;47.780;9.606;2023-04-03T15:17:38;9.10;99.90
19930;DHT22;10127;47.780;9.606;2023-04-03T15:20:15;9.00;99.90
19930;DHT22;10127;47.780;9.606;2023-04-03T15:22:40;8.90;99.90
19930;DHT22;10127;47.780;9.606;2023-04-03T15:25:06;8.50;99.90
19930;DHT22;10127;47.780;9.606;2023-04-03T15:27:32;8.40;99.90
19930;DHT22;10127;47.780;9.606;2023-04-03T15:29:58;8.50;99.90
19930;DHT22;10127;47.780;9.606;2023-04-03T15:32:24;8.30;99.90
19930;DHT22;10127;47.780;9.606;2023-04-03T15:34:49;8.00;99.90
19930;DHT22;10127;47.780;9.606;2023-04-03T15:37:15;7.70;99.90
19930;DHT22;10127;47.780;9.606;2023-04-03T15:39:41;7.70;99.90
19930;DHT22;10127;47.780;9.606;2023-04-03T15:42:06;8.00;99.90
19930;DHT22;10127;47.780;9.606;2023-04-03T15:44:35;8.00;99.90
19930;DHT22;10127;47.780;9.606;2023-04-03T15:47:01;8.20;99.90
19930;DHT22;10127;47.780;9.606;2023-04-03T15:49:28;7.90;99.90
19930;DHT22;10127;47.780;9.606;2023-04-03T15:51:53;7.90;99.90
19930;DHT22;10127;47.780;9.606;2023-04-03T15:54:19;8.10;99.90
19930;DHT22;10127;47.780;9.606;2023-04-03T15:56:46;7.90;99.90
19930;DHT22;10127;47.780;9.606;2023-04-03T15:59:11;7.80;99.90
19930;DHT22;10127;47.780;9.606;2023-04-03T16:01:38;7.80;99.90
19930;DHT22;10127;47.780;9.606;2023-04-03T16:04:05;7.90;99.90
19930;DHT22;10127;47.780;9.606;2023-04-03T16:06:30;7.80;99.90
19930;DHT22;10127;47.780;9.606;2023-04-03T16:08:57;7.80;99.90
19930;DHT22;10127;47.780;9.606;2023-04-03T16:11:24;7.70;99.90
19930;DHT22;10127;47.780;9.606;2023-04-03T16:13:51;7.70;99.90
19930;DHT22;10127;47.780;9.606;2023-04-03T16:16:16;7.70;99.90
19930;DHT22;10127;47.780;9.606;2023-04-03T16:18:49;7.70;99.90
19930;DHT22;10127;47.780;9.606;2023-04-03T16:21:15;7.90;99.90
19930;DHT22;10127;47.780;9.606;2023-04-03T16:23:43;7.70;99.90
19930;DHT22;10127;47.780;9.606;2023-04-03T16:26:09;7.80;99.90
19930;DHT22;10127;47.780;9.606;2023-04-03T16:28:34;7.80;99.90
19930;DHT22;10127;47.780;9.606;2023-04-03T16:31:01;7.80;99.90
19930;DHT22;10127;47.780;9.606;2023-04-03T16:33:27;7.90;99.90
19930;DHT22;10127;47.780;9.606;2023-04-03T16:35:54;7.90;99.90
19930;DHT22;10127;47.780;9.606;2023-04-03T16:38:19;7.80;99.90
19930;DHT22;10127;47.780;9.606;2023-04-03T16:40:47;7.90;99.90
19930;DHT22;10127;47.780;9.606;2023-04-03T16:43:14;8.10;99.90
19930;DHT22;10127;47.780;9.606;2023-04-03T16:45:40;7.80;99.90
19930;DHT22;10127;47.780;9.606;2023-04-03T16:48:05;7.80;99.90
19930;DHT22;10127;47.780;9.606;2023-04-03T16:50:31;7.60;99.90
19930;DHT22;10127;47.780;9.606;2023-04-03T16:52:57;7.80;99.90
19930;DHT22;10127;47.780;9.606;2023-04-03T16:55:23;7.60;99.90
19930;DHT22;10127;47.780;9.606;2023-04-03T16:57:48;7.60;99.90
19930;DHT22;10127;47.780;9.606;2023-04-03T17:00:14;7.40;99.90
19930;DHT22;10127;47.780;9.606;2023-04-03T17:02:40;7.40;99.90
19930;DHT22;10127;47.780;9.606;2023-04-03T17:05:07;7.50;99.90
19930;DHT22;10127;47.780;9.606;2023-04-03T17:07:32;7.60;99.90
19930;DHT22;10127;47.780;9.606;2023-04-03T17:09:59;7.30;99.90
19930;DHT22;10127;47.780;9.606;2023-04-03T17:12:25;7.40;99.90
19930;DHT22;10127;47.780;9.606;2023-04-03T17:14:51;7.60;99.90
19930;DHT22;10127;47.780;9.606;2023-04-03T17:17:22;7.50;99.90
19930;DHT22;10127;47.780;9.606;2023-04-03T17:19:48;7.30;99.90
19930;DHT22;10127;47.780;9.606;2023-04-03T17:22:14;7.30;99.90
19930;DHT22;10127;47.780;9.606;2023-04-03T17:24:41;7.50;99.90
19930;DHT22;10127;47.780;9.606;2023-04-03T17:27:07;7.30;99.90
19930;DHT22;10127;47.780;9.606;2023-04-03T17:29:33;7.00;99.90
19930;DHT22;10127;47.780;9.606;2023-04-03T17:31:58;6.90;99.90
19930;DHT22;10127;47.780;9.606;2023-04-03T17:34:24;6.90;99.90
19930;DHT22;10127;47.780;9.606;2023-04-03T17:36:49;7.00;99.90
19930;DHT22;10127;47.780;9.606;2023-04-03T17:39:15;7.00;99.90
19930;DHT22;10127;47.780;9.606;2023-04-03T17:41:41;6.90;99.90
19930;DHT22;10127;47.780;9.606;2023-04-03T17:44:07;6.80;99.90
19930;DHT22;10127;47.780;9.606;2023-04-03T17:46:33;6.90;99.90
19930;DHT22;10127;47.780;9.606;2023-04-03T17:48:58;6.90;99.90
19930;DHT22;10127;47.780;9.606;2023-04-03T17:51:25;6.90;99.90
19930;DHT22;10127;47.780;9.606;2023-04-03T17:53:51;6.80;99.90
19930;DHT22;10127;47.780;9.606;2023-04-03T17:56:19;6.80;99.90
19930;DHT22;10127;47.780;9.606;2023-04-03T17:58:46;6.70;99.90
19930;DHT22;10127;47.780;9.606;2023-04-03T18:01:38;6.90;99.90
19930;DHT22;10127;47.780;9.606;2023-04-03T18:04:05;7.00;99.90
19930;DHT22;10127;47.780;9.606;2023-04-03T18:06:33;7.10;99.90
19930;DHT22;10127;47.780;9.606;2023-04-03T18:09:10;7.10;99.90
19930;DHT22;10127;47.780;9.606;2023-04-03T18:11:37;6.80;99.90
19930;DHT22;10127;47.780;9.606;2023-04-03T18:14:04;6.70;99.90
19930;DHT22;10127;47.780;9.606;2023-04-03T18:16:32;6.70;99.90
19930;DHT22;10127;47.780;9.606;2023-04-03T18:18:57;6.60;99.90
19930;DHT22;10127;47.780;9.606;2023-04-03T18:21:23;6.70;99.90
19930;DHT22;10127;47.780;9.606;2023-04-03T18:23:51;6.70;99.90
19930;DHT22;10127;47.780;9.606;2023-04-03T18:26:17;6.70;99.90